Aviation Digital Data Service (ADDS)

Output produced by TAFs form (1350 UTC 30 September 2014)
found at http://aviationweather.gov/adds/tafs/
 
KMTJ 301125Z 3012/0112 15004KT P6SM BKN100 
     FM301600 02004KT P6SM SCT100 
     FM301900 34005KT P6SM SCT090 BKN120 
     FM010200 15005KT P6SM SCT150